sensor_id;sensor_type;location;lat;lon;timestamp;P1;durP1;ratioP1;P2;durP2;ratioP2
40533;SDS011;26233;51.894;10.192;2023-12-29T00:00:56;2.25;;;1.45;;
40533;SDS011;26233;51.894;10.192;2023-12-29T00:03:23;2.10;;;1.65;;
40533;SDS011;26233;51.894;10.192;2023-12-29T00:05:50;2.28;;;1.50;;
40533;SDS011;26233;51.894;10.192;2023-12-29T00:08:17;1.60;;;1.50;;
40533;SDS011;26233;51.894;10.192;2023-12-29T00:10:44;1.70;;;1.60;;
40533;SDS011;26233;51.894;10.192;2023-12-29T00:13:11;2.65;;;1.33;;
40533;SDS011;26233;51.894;10.192;2023-12-29T00:15:39;1.58;;;1.48;;
40533;SDS011;26233;51.894;10.192;2023-12-29T00:18:07;1.40;;;1.30;;
40533;SDS011;26233;51.894;10.192;2023-12-29T00:20:34;1.50;;;1.40;;
40533;SDS011;26233;51.894;10.192;2023-12-29T00:23:02;2.90;;;1.63;;
40533;SDS011;26233;51.894;10.192;2023-12-29T00:25:29;1.75;;;1.60;;
40533;SDS011;26233;51.894;10.192;2023-12-29T00:27:56;1.50;;;1.40;;
40533;SDS011;26233;51.894;10.192;2023-12-29T00:30:23;1.73;;;1.50;;
40533;SDS011;26233;51.894;10.192;2023-12-29T00:32:51;2.03;;;1.50;;
40533;SDS011;26233;51.894;10.192;2023-12-29T00:35:18;1.40;;;1.30;;
40533;SDS011;26233;51.894;10.192;2023-12-29T00:37:45;1.38;;;1.27;;
40533;SDS011;26233;51.894;10.192;2023-12-29T00:40:12;1.52;;;1.33;;
40533;SDS011;26233;51.894;10.192;2023-12-29T00:42:39;1.35;;;1.25;;
40533;SDS011;26233;51.894;10.192;2023-12-29T00:45:07;1.73;;;1.40;;
40533;SDS011;26233;51.894;10.192;2023-12-29T00:47:35;1.52;;;1.30;;
40533;SDS011;26233;51.894;10.192;2023-12-29T00:50:04;1.48;;;1.38;;
40533;SDS011;26233;51.894;10.192;2023-12-29T00:52:31;1.30;;;1.20;;
40533;SDS011;26233;51.894;10.192;2023-12-29T00:54:59;1.42;;;1.30;;
40533;SDS011;26233;51.894;10.192;2023-12-29T00:57:26;1.48;;;1.30;;
40533;SDS011;26233;51.894;10.192;2023-12-29T00:59:53;1.40;;;1.30;;
40533;SDS011;26233;51.894;10.192;2023-12-29T01:02:20;2.08;;;1.55;;
40533;SDS011;26233;51.894;10.192;2023-12-29T01:04:47;1.40;;;1.30;;
40533;SDS011;26233;51.894;10.192;2023-12-29T01:07:15;1.92;;;1.20;;
40533;SDS011;26233;51.894;10.192;2023-12-29T01:09:42;3.58;;;1.50;;
40533;SDS011;26233;51.894;10.192;2023-12-29T01:12:09;1.20;;;1.10;;
40533;SDS011;26233;51.894;10.192;2023-12-29T01:14:36;2.67;;;1.33;;
40533;SDS011;26233;51.894;10.192;2023-12-29T01:17:03;1.13;;;1.02;;
40533;SDS011;26233;51.894;10.192;2023-12-29T01:19:30;1.50;;;1.23;;
40533;SDS011;26233;51.894;10.192;2023-12-29T01:21:57;2.28;;;1.20;;
40533;SDS011;26233;51.894;10.192;2023-12-29T01:24:25;1.20;;;1.10;;
40533;SDS011;26233;51.894;10.192;2023-12-29T01:26:52;2.20;;;1.30;;
40533;SDS011;26233;51.894;10.192;2023-12-29T01:29:19;1.20;;;1.10;;
40533;SDS011;26233;51.894;10.192;2023-12-29T01:31:46;2.20;;;1.20;;
40533;SDS011;26233;51.894;10.192;2023-12-29T01:34:13;1.80;;;1.38;;
40533;SDS011;26233;51.894;10.192;2023-12-29T01:36:40;1.40;;;1.30;;
40533;SDS011;26233;51.894;10.192;2023-12-29T01:39:07;1.30;;;1.20;;
40533;SDS011;26233;51.894;10.192;2023-12-29T01:41:36;1.30;;;1.20;;
40533;SDS011;26233;51.894;10.192;2023-12-29T01:44:19;1.13;;;1.10;;
40533;SDS011;26233;51.894;10.192;2023-12-29T01:46:47;1.55;;;1.40;;
40533;SDS011;26233;51.894;10.192;2023-12-29T01:49:20;1.65;;;1.30;;
40533;SDS011;26233;51.894;10.192;2023-12-29T01:51:48;1.58;;;1.20;;
40533;SDS011;26233;51.894;10.192;2023-12-29T01:54:18;1.45;;;1.10;;
40533;SDS011;26233;51.894;10.192;2023-12-29T01:56:47;1.40;;;1.00;;
40533;SDS011;26233;51.894;10.192;2023-12-29T01:59:16;1.58;;;1.25;;
40533;SDS011;26233;51.894;10.192;2023-12-29T02:01:44;1.25;;;1.15;;
40533;SDS011;26233;51.894;10.192;2023-12-29T02:04:12;1.10;;;1.00;;
40533;SDS011;26233;51.894;10.192;2023-12-29T02:06:40;0.88;;;0.88;;
40533;SDS011;26233;51.894;10.192;2023-12-29T02:09:07;1.00;;;0.95;;
40533;SDS011;26233;51.894;10.192;2023-12-29T02:11:35;1.67;;;1.25;;
40533;SDS011;26233;51.894;10.192;2023-12-29T02:14:03;1.70;;;1.00;;
40533;SDS011;26233;51.894;10.192;2023-12-29T02:16:33;1.10;;;1.00;;
40533;SDS011;26233;51.894;10.192;2023-12-29T02:19:08;2.05;;;1.15;;
40533;SDS011;26233;51.894;10.192;2023-12-29T02:21:51;1.17;;;1.08;;
40533;SDS011;26233;51.894;10.192;2023-12-29T02:24:18;1.35;;;1.13;;
40533;SDS011;26233;51.894;10.192;2023-12-29T02:26:47;1.40;;;1.13;;
40533;SDS011;26233;51.894;10.192;2023-12-29T02:29:22;1.75;;;1.10;;
40533;SDS011;26233;51.894;10.192;2023-12-29T02:31:52;1.42;;;1.02;;
40533;SDS011;26233;51.894;10.192;2023-12-29T02:34:23;1.20;;;1.05;;
40533;SDS011;26233;51.894;10.192;2023-12-29T02:36:52;1.67;;;1.20;;
40533;SDS011;26233;51.894;10.192;2023-12-29T02:39:20;1.52;;;1.08;;
40533;SDS011;26233;51.894;10.192;2023-12-29T02:41:49;0.90;;;0.90;;
40533;SDS011;26233;51.894;10.192;2023-12-29T02:44:16;1.10;;;1.00;;
40533;SDS011;26233;51.894;10.192;2023-12-29T02:46:43;1.35;;;1.15;;
40533;SDS011;26233;51.894;10.192;2023-12-29T02:49:12;1.25;;;1.00;;
40533;SDS011;26233;51.894;10.192;2023-12-29T02:51:39;0.77;;;0.77;;
40533;SDS011;26233;51.894;10.192;2023-12-29T02:54:06;1.02;;;0.90;;
40533;SDS011;26233;51.894;10.192;2023-12-29T02:56:33;1.10;;;1.00;;
40533;SDS011;26233;51.894;10.192;2023-12-29T02:59:02;0.80;;;0.80;;
40533;SDS011;26233;51.894;10.192;2023-12-29T03:01:29;1.10;;;1.00;;
40533;SDS011;26233;51.894;10.192;2023-12-29T03:03:56;2.67;;;1.00;;
40533;SDS011;26233;51.894;10.192;2023-12-29T03:06:23;1.77;;;1.02;;
40533;SDS011;26233;51.894;10.192;2023-12-29T03:08:51;1.90;;;1.17;;
40533;SDS011;26233;51.894;10.192;2023-12-29T03:11:18;1.05;;;0.98;;
40533;SDS011;26233;51.894;10.192;2023-12-29T03:13:45;1.00;;;0.90;;
40533;SDS011;26233;51.894;10.192;2023-12-29T03:16:13;1.30;;;0.93;;
40533;SDS011;26233;51.894;10.192;2023-12-29T03:18:40;0.90;;;0.90;;
40533;SDS011;26233;51.894;10.192;2023-12-29T03:21:07;2.20;;;1.00;;
40533;SDS011;26233;51.894;10.192;2023-12-29T03:23:34;1.00;;;0.90;;
40533;SDS011;26233;51.894;10.192;2023-12-29T03:26:01;1.95;;;1.05;;
40533;SDS011;26233;51.894;10.192;2023-12-29T03:28:28;2.05;;;1.10;;
40533;SDS011;26233;51.894;10.192;2023-12-29T03:30:55;1.17;;;1.00;;
40533;SDS011;26233;51.894;10.192;2023-12-29T03:33:24;1.40;;;1.10;;
40533;SDS011;26233;51.894;10.192;2023-12-29T03:35:51;1.42;;;0.90;;
40533;SDS011;26233;51.894;10.192;2023-12-29T03:38:18;0.90;;;0.90;;
40533;SDS011;26233;51.894;10.192;2023-12-29T03:40:45;1.17;;;1.08;;
40533;SDS011;26233;51.894;10.192;2023-12-29T03:43:12;1.10;;;1.00;;
40533;SDS011;26233;51.894;10.192;2023-12-29T03:45:39;0.98;;;0.90;;
40533;SDS011;26233;51.894;10.192;2023-12-29T03:48:06;0.80;;;0.80;;
40533;SDS011;26233;51.894;10.192;2023-12-29T03:50:36;1.65;;;1.02;;
40533;SDS011;26233;51.894;10.192;2023-12-29T03:53:03;3.60;;;0.90;;
40533;SDS011;26233;51.894;10.192;2023-12-29T03:55:30;1.00;;;0.90;;
40533;SDS011;26233;51.894;10.192;2023-12-29T03:57:57;2.10;;;0.95;;
40533;SDS011;26233;51.894;10.192;2023-12-29T04:00:25;1.38;;;0.95;;
40533;SDS011;26233;51.894;10.192;2023-12-29T04:02:52;1.40;;;1.17;;
40533;SDS011;26233;51.894;10.192;2023-12-29T04:05:19;1.63;;;1.17;;
40533;SDS011;26233;51.894;10.192;2023-12-29T04:07:47;1.88;;;1.10;;
40533;SDS011;26233;51.894;10.192;2023-12-29T04:10:15;1.45;;;1.20;;
40533;SDS011;26233;51.894;10.192;2023-12-29T04:12:42;1.30;;;1.00;;
40533;SDS011;26233;51.894;10.192;2023-12-29T04:15:09;1.58;;;1.10;;
40533;SDS011;26233;51.894;10.192;2023-12-29T04:17:36;2.20;;;1.10;;
40533;SDS011;26233;51.894;10.192;2023-12-29T04:20:04;2.03;;;1.10;;
40533;SDS011;26233;51.894;10.192;2023-12-29T04:22:32;2.00;;;1.17;;
40533;SDS011;26233;51.894;10.192;2023-12-29T04:25:01;1.48;;;0.95;;
40533;SDS011;26233;51.894;10.192;2023-12-29T04:27:28;1.70;;;1.25;;
40533;SDS011;26233;51.894;10.192;2023-12-29T04:29:55;1.30;;;1.20;;
40533;SDS011;26233;51.894;10.192;2023-12-29T04:32:22;1.45;;;1.17;;
40533;SDS011;26233;51.894;10.192;2023-12-29T04:34:49;1.40;;;1.05;;
40533;SDS011;26233;51.894;10.192;2023-12-29T04:37:16;1.50;;;1.02;;
40533;SDS011;26233;51.894;10.192;2023-12-29T04:39:43;0.85;;;0.85;;
40533;SDS011;26233;51.894;10.192;2023-12-29T04:42:12;1.45;;;1.13;;
40533;SDS011;26233;51.894;10.192;2023-12-29T04:44:39;1.58;;;1.35;;
40533;SDS011;26233;51.894;10.192;2023-12-29T04:47:06;1.17;;;1.00;;
40533;SDS011;26233;51.894;10.192;2023-12-29T04:49:33;1.42;;;1.20;;
40533;SDS011;26233;51.894;10.192;2023-12-29T04:52:00;1.77;;;1.33;;
40533;SDS011;26233;51.894;10.192;2023-12-29T04:54:27;1.85;;;1.20;;
40533;SDS011;26233;51.894;10.192;2023-12-29T04:56:54;1.60;;;1.25;;
40533;SDS011;26233;51.894;10.192;2023-12-29T04:59:23;1.30;;;1.20;;
40533;SDS011;26233;51.894;10.192;2023-12-29T05:01:50;2.08;;;1.23;;
40533;SDS011;26233;51.894;10.192;2023-12-29T05:04:17;2.65;;;1.30;;
40533;SDS011;26233;51.894;10.192;2023-12-29T05:06:44;1.30;;;1.20;;
40533;SDS011;26233;51.894;10.192;2023-12-29T05:09:11;1.70;;;1.20;;
40533;SDS011;26233;51.894;10.192;2023-12-29T05:11:38;1.38;;;1.27;;
40533;SDS011;26233;51.894;10.192;2023-12-29T05:14:05;1.80;;;1.30;;
40533;SDS011;26233;51.894;10.192;2023-12-29T05:16:34;2.40;;;1.55;;
40533;SDS011;26233;51.894;10.192;2023-12-29T05:19:01;1.73;;;1.60;;
40533;SDS011;26233;51.894;10.192;2023-12-29T05:21:28;1.50;;;1.40;;
40533;SDS011;26233;51.894;10.192;2023-12-29T05:23:56;1.55;;;1.42;;
40533;SDS011;26233;51.894;10.192;2023-12-29T05:26:23;1.40;;;1.30;;
40533;SDS011;26233;51.894;10.192;2023-12-29T05:28:50;1.70;;;1.20;;
40533;SDS011;26233;51.894;10.192;2023-12-29T05:31:17;1.70;;;1.42;;
40533;SDS011;26233;51.894;10.192;2023-12-29T05:33:45;4.68;;;1.27;;
40533;SDS011;26233;51.894;10.192;2023-12-29T05:36:12;1.20;;;1.10;;
40533;SDS011;26233;51.894;10.192;2023-12-29T05:38:39;1.60;;;1.20;;
40533;SDS011;26233;51.894;10.192;2023-12-29T05:41:07;1.20;;;1.10;;
40533;SDS011;26233;51.894;10.192;2023-12-29T05:43:34;1.60;;;1.35;;
40533;SDS011;26233;51.894;10.192;2023-12-29T05:46:01;2.35;;;1.50;;
40533;SDS011;26233;51.894;10.192;2023-12-29T05:48:28;2.25;;;1.27;;
40533;SDS011;26233;51.894;10.192;2023-12-29T05:50:57;2.20;;;1.30;;
40533;SDS011;26233;51.894;10.192;2023-12-29T05:53:24;1.45;;;1.35;;
40533;SDS011;26233;51.894;10.192;2023-12-29T05:55:51;1.40;;;1.30;;
40533;SDS011;26233;51.894;10.192;2023-12-29T05:58:18;2.72;;;1.35;;
40533;SDS011;26233;51.894;10.192;2023-12-29T06:00:45;1.98;;;1.50;;
40533;SDS011;26233;51.894;10.192;2023-12-29T06:03:12;1.88;;;1.50;;
40533;SDS011;26233;51.894;10.192;2023-12-29T06:05:40;1.48;;;1.20;;
40533;SDS011;26233;51.894;10.192;2023-12-29T06:08:09;1.88;;;1.40;;
40533;SDS011;26233;51.894;10.192;2023-12-29T06:10:36;1.50;;;1.40;;
40533;SDS011;26233;51.894;10.192;2023-12-29T06:13:02;2.90;;;1.75;;
40533;SDS011;26233;51.894;10.192;2023-12-29T06:15:30;2.72;;;1.40;;
40533;SDS011;26233;51.894;10.192;2023-12-29T06:17:57;1.67;;;1.40;;
40533;SDS011;26233;51.894;10.192;2023-12-29T06:20:25;2.38;;;1.50;;
40533;SDS011;26233;51.894;10.192;2023-12-29T06:22:52;2.13;;;1.50;;
40533;SDS011;26233;51.894;10.192;2023-12-29T06:25:21;1.52;;;1.42;;
40533;SDS011;26233;51.894;10.192;2023-12-29T06:27:48;2.42;;;1.80;;
40533;SDS011;26233;51.894;10.192;2023-12-29T06:30:15;1.40;;;1.30;;
40533;SDS011;26233;51.894;10.192;2023-12-29T06:32:42;1.73;;;1.48;;
40533;SDS011;26233;51.894;10.192;2023-12-29T06:35:09;2.55;;;1.38;;
40533;SDS011;26233;51.894;10.192;2023-12-29T06:37:37;2.25;;;1.40;;
40533;SDS011;26233;51.894;10.192;2023-12-29T06:40:05;2.08;;;1.40;;
40533;SDS011;26233;51.894;10.192;2023-12-29T06:42:35;1.90;;;1.65;;
40533;SDS011;26233;51.894;10.192;2023-12-29T06:45:03;1.83;;;1.23;;
40533;SDS011;26233;51.894;10.192;2023-12-29T06:47:33;2.08;;;1.30;;
40533;SDS011;26233;51.894;10.192;2023-12-29T06:49:59;1.92;;;1.40;;
40533;SDS011;26233;51.894;10.192;2023-12-29T06:52:27;1.80;;;1.30;;
40533;SDS011;26233;51.894;10.192;2023-12-29T06:54:58;2.67;;;1.50;;
40533;SDS011;26233;51.894;10.192;2023-12-29T06:57:26;1.50;;;1.20;;
40533;SDS011;26233;51.894;10.192;2023-12-29T06:59:54;1.77;;;1.20;;
40533;SDS011;26233;51.894;10.192;2023-12-29T07:02:22;2.45;;;1.40;;
40533;SDS011;26233;51.894;10.192;2023-12-29T07:04:49;1.40;;;1.30;;
40533;SDS011;26233;51.894;10.192;2023-12-29T07:07:16;1.38;;;1.25;;
40533;SDS011;26233;51.894;10.192;2023-12-29T07:09:43;1.65;;;1.40;;
40533;SDS011;26233;51.894;10.192;2023-12-29T07:12:10;2.30;;;1.30;;
40533;SDS011;26233;51.894;10.192;2023-12-29T07:14:37;3.35;;;1.60;;
40533;SDS011;26233;51.894;10.192;2023-12-29T07:17:08;2.47;;;1.48;;
40533;SDS011;26233;51.894;10.192;2023-12-29T07:19:35;3.05;;;1.35;;
40533;SDS011;26233;51.894;10.192;2023-12-29T07:22:03;1.67;;;1.20;;
40533;SDS011;26233;51.894;10.192;2023-12-29T07:24:31;1.83;;;1.40;;
40533;SDS011;26233;51.894;10.192;2023-12-29T07:27:00;3.33;;;1.30;;
40533;SDS011;26233;51.894;10.192;2023-12-29T07:29:27;2.25;;;1.15;;
40533;SDS011;26233;51.894;10.192;2023-12-29T07:31:54;2.05;;;1.40;;
40533;SDS011;26233;51.894;10.192;2023-12-29T07:34:22;1.77;;;1.27;;
40533;SDS011;26233;51.894;10.192;2023-12-29T07:36:50;1.92;;;1.35;;
40533;SDS011;26233;51.894;10.192;2023-12-29T07:39:17;1.55;;;1.20;;
40533;SDS011;26233;51.894;10.192;2023-12-29T07:41:44;1.60;;;1.30;;
40533;SDS011;26233;51.894;10.192;2023-12-29T07:44:13;1.70;;;1.27;;
40533;SDS011;26233;51.894;10.192;2023-12-29T07:46:40;1.88;;;1.40;;
40533;SDS011;26233;51.894;10.192;2023-12-29T07:49:10;4.60;;;1.50;;
40533;SDS011;26233;51.894;10.192;2023-12-29T07:51:40;2.10;;;1.13;;
40533;SDS011;26233;51.894;10.192;2023-12-29T07:54:08;1.65;;;1.27;;
40533;SDS011;26233;51.894;10.192;2023-12-29T07:56:35;2.05;;;1.38;;
40533;SDS011;26233;51.894;10.192;2023-12-29T07:59:02;1.67;;;1.40;;
40533;SDS011;26233;51.894;10.192;2023-12-29T08:01:30;2.25;;;1.02;;
40533;SDS011;26233;51.894;10.192;2023-12-29T08:03:57;2.03;;;1.30;;
40533;SDS011;26233;51.894;10.192;2023-12-29T08:06:24;2.03;;;1.25;;
40533;SDS011;26233;51.894;10.192;2023-12-29T08:08:53;2.38;;;1.30;;
40533;SDS011;26233;51.894;10.192;2023-12-29T08:11:20;1.73;;;1.30;;
40533;SDS011;26233;51.894;10.192;2023-12-29T08:13:48;2.17;;;1.10;;
40533;SDS011;26233;51.894;10.192;2023-12-29T08:16:15;1.48;;;1.20;;
40533;SDS011;26233;51.894;10.192;2023-12-29T08:18:43;3.28;;;1.30;;
40533;SDS011;26233;51.894;10.192;2023-12-29T08:21:16;1.85;;;1.00;;
40533;SDS011;26233;51.894;10.192;2023-12-29T08:23:44;1.88;;;1.00;;
40533;SDS011;26233;51.894;10.192;2023-12-29T08:26:13;1.60;;;1.10;;
40533;SDS011;26233;51.894;10.192;2023-12-29T08:28:41;2.60;;;0.90;;
40533;SDS011;26233;51.894;10.192;2023-12-29T08:31:08;1.25;;;1.05;;
40533;SDS011;26233;51.894;10.192;2023-12-29T08:33:35;1.50;;;1.20;;
40533;SDS011;26233;51.894;10.192;2023-12-29T08:36:02;1.42;;;1.05;;
40533;SDS011;26233;51.894;10.192;2023-12-29T08:38:30;1.08;;;0.88;;
40533;SDS011;26233;51.894;10.192;2023-12-29T08:40:57;1.52;;;1.00;;
40533;SDS011;26233;51.894;10.192;2023-12-29T08:43:26;1.20;;;1.00;;
40533;SDS011;26233;51.894;10.192;2023-12-29T08:45:53;2.50;;;1.25;;
40533;SDS011;26233;51.894;10.192;2023-12-29T08:48:20;1.35;;;1.10;;
40533;SDS011;26233;51.894;10.192;2023-12-29T08:50:47;2.63;;;1.10;;
40533;SDS011;26233;51.894;10.192;2023-12-29T08:53:15;1.33;;;1.02;;
40533;SDS011;26233;51.894;10.192;2023-12-29T08:55:42;1.90;;;1.20;;
40533;SDS011;26233;51.894;10.192;2023-12-29T08:58:10;1.70;;;1.08;;
40533;SDS011;26233;51.894;10.192;2023-12-29T09:00:40;1.30;;;1.20;;
40533;SDS011;26233;51.894;10.192;2023-12-29T09:03:07;1.77;;;1.20;;
40533;SDS011;26233;51.894;10.192;2023-12-29T09:05:34;1.58;;;1.00;;
40533;SDS011;26233;51.894;10.192;2023-12-29T09:08:01;1.50;;;1.30;;
40533;SDS011;26233;51.894;10.192;2023-12-29T09:10:29;1.50;;;1.10;;
40533;SDS011;26233;51.894;10.192;2023-12-29T09:12:56;2.42;;;1.13;;
40533;SDS011;26233;51.894;10.192;2023-12-29T09:15:23;1.98;;;1.17;;
40533;SDS011;26233;51.894;10.192;2023-12-29T09:17:52;1.02;;;1.00;;
40533;SDS011;26233;51.894;10.192;2023-12-29T09:20:19;1.75;;;1.15;;
40533;SDS011;26233;51.894;10.192;2023-12-29T09:22:46;1.20;;;1.00;;
40533;SDS011;26233;51.894;10.192;2023-12-29T09:25:13;1.95;;;0.80;;
40533;SDS011;26233;51.894;10.192;2023-12-29T09:27:40;1.80;;;1.30;;
40533;SDS011;26233;51.894;10.192;2023-12-29T09:30:09;1.80;;;0.98;;
40533;SDS011;26233;51.894;10.192;2023-12-29T09:32:37;3.88;;;1.40;;
40533;SDS011;26233;51.894;10.192;2023-12-29T09:35:05;1.85;;;0.93;;
40533;SDS011;26233;51.894;10.192;2023-12-29T09:37:33;1.48;;;1.00;;
40533;SDS011;26233;51.894;10.192;2023-12-29T09:39:59;0.90;;;0.90;;
40533;SDS011;26233;51.894;10.192;2023-12-29T09:42:28;1.88;;;1.10;;
40533;SDS011;26233;51.894;10.192;2023-12-29T09:44:55;1.70;;;1.00;;
40533;SDS011;26233;51.894;10.192;2023-12-29T09:47:23;1.75;;;1.10;;
40533;SDS011;26233;51.894;10.192;2023-12-29T09:49:51;2.13;;;1.15;;
40533;SDS011;26233;51.894;10.192;2023-12-29T09:52:21;2.63;;;1.10;;
40533;SDS011;26233;51.894;10.192;2023-12-29T09:54:49;2.20;;;1.25;;
40533;SDS011;26233;51.894;10.192;2023-12-29T09:57:18;2.50;;;1.20;;
40533;SDS011;26233;51.894;10.192;2023-12-29T09:59:45;2.28;;;1.30;;
40533;SDS011;26233;51.894;10.192;2023-12-29T10:02:16;1.33;;;1.20;;
40533;SDS011;26233;51.894;10.192;2023-12-29T10:04:44;2.35;;;1.30;;
40533;SDS011;26233;51.894;10.192;2023-12-29T10:07:13;2.08;;;1.25;;
40533;SDS011;26233;51.894;10.192;2023-12-29T10:09:52;1.33;;;1.20;;
40533;SDS011;26233;51.894;10.192;2023-12-29T10:12:23;3.20;;;1.33;;
40533;SDS011;26233;51.894;10.192;2023-12-29T10:14:54;2.00;;;1.30;;
40533;SDS011;26233;51.894;10.192;2023-12-29T10:17:34;1.92;;;1.30;;
40533;SDS011;26233;51.894;10.192;2023-12-29T10:20:12;2.67;;;1.38;;
40533;SDS011;26233;51.894;10.192;2023-12-29T10:22:54;2.03;;;1.30;;
40533;SDS011;26233;51.894;10.192;2023-12-29T10:25:32;2.38;;;1.30;;
40533;SDS011;26233;51.894;10.192;2023-12-29T10:27:59;1.48;;;1.10;;
40533;SDS011;26233;51.894;10.192;2023-12-29T10:30:27;2.30;;;1.50;;
40533;SDS011;26233;51.894;10.192;2023-12-29T10:32:55;1.83;;;1.35;;
40533;SDS011;26233;51.894;10.192;2023-12-29T10:35:23;1.67;;;1.25;;
40533;SDS011;26233;51.894;10.192;2023-12-29T10:37:50;1.73;;;1.30;;
40533;SDS011;26233;51.894;10.192;2023-12-29T10:40:19;1.63;;;1.35;;
40533;SDS011;26233;51.894;10.192;2023-12-29T10:42:53;1.35;;;1.17;;
40533;SDS011;26233;51.894;10.192;2023-12-29T10:45:22;1.42;;;1.20;;
40533;SDS011;26233;51.894;10.192;2023-12-29T10:47:50;1.95;;;1.17;;
40533;SDS011;26233;51.894;10.192;2023-12-29T10:50:17;1.58;;;1.30;;
40533;SDS011;26233;51.894;10.192;2023-12-29T10:52:44;4.97;;;3.47;;
40533;SDS011;26233;51.894;10.192;2023-12-29T10:55:13;3.33;;;2.13;;
40533;SDS011;26233;51.894;10.192;2023-12-29T10:57:40;2.50;;;1.83;;
40533;SDS011;26233;51.894;10.192;2023-12-29T11:00:08;2.38;;;1.50;;
40533;SDS011;26233;51.894;10.192;2023-12-29T11:02:37;1.80;;;1.25;;
40533;SDS011;26233;51.894;10.192;2023-12-29T11:05:05;3.30;;;1.60;;
40533;SDS011;26233;51.894;10.192;2023-12-29T11:07:34;1.45;;;1.20;;
40533;SDS011;26233;51.894;10.192;2023-12-29T11:10:03;1.90;;;1.25;;
40533;SDS011;26233;51.894;10.192;2023-12-29T11:12:34;2.78;;;1.70;;
40533;SDS011;26233;51.894;10.192;2023-12-29T11:15:03;1.38;;;1.23;;
40533;SDS011;26233;51.894;10.192;2023-12-29T11:17:33;1.30;;;1.20;;
40533;SDS011;26233;51.894;10.192;2023-12-29T11:20:02;2.55;;;1.50;;
40533;SDS011;26233;51.894;10.192;2023-12-29T11:22:31;1.65;;;1.38;;
40533;SDS011;26233;51.894;10.192;2023-12-29T11:24:59;1.88;;;1.17;;
40533;SDS011;26233;51.894;10.192;2023-12-29T11:27:27;1.75;;;1.20;;
40533;SDS011;26233;51.894;10.192;2023-12-29T11:29:57;1.38;;;1.17;;
40533;SDS011;26233;51.894;10.192;2023-12-29T11:32:29;1.90;;;1.20;;
40533;SDS011;26233;51.894;10.192;2023-12-29T11:35:06;1.77;;;1.10;;
40533;SDS011;26233;51.894;10.192;2023-12-29T11:41:02;1.58;;;1.25;;
40533;SDS011;26233;51.894;10.192;2023-12-29T11:43:35;1.65;;;1.30;;
40533;SDS011;26233;51.894;10.192;2023-12-29T11:46:03;1.42;;;1.13;;
40533;SDS011;26233;51.894;10.192;2023-12-29T11:51:27;1.10;;;0.98;;
40533;SDS011;26233;51.894;10.192;2023-12-29T11:53:54;1.45;;;1.00;;
40533;SDS011;26233;51.894;10.192;2023-12-29T11:56:22;1.00;;;0.90;;
40533;SDS011;26233;51.894;10.192;2023-12-29T11:58:49;1.20;;;0.93;;
40533;SDS011;26233;51.894;10.192;2023-12-29T12:04:02;1.02;;;0.88;;
40533;SDS011;26233;51.894;10.192;2023-12-29T12:06:38;1.67;;;0.82;;
40533;SDS011;26233;51.894;10.192;2023-12-29T12:09:15;0.88;;;0.85;;
40533;SDS011;26233;51.894;10.192;2023-12-29T12:11:44;0.93;;;0.90;;
40533;SDS011;26233;51.894;10.192;2023-12-29T12:17:12;0.95;;;0.80;;
40533;SDS011;26233;51.894;10.192;2023-12-29T12:19:53;1.08;;;0.75;;
40533;SDS011;26233;51.894;10.192;2023-12-29T12:22:24;0.80;;;0.80;;
40533;SDS011;26233;51.894;10.192;2023-12-29T12:24:55;1.00;;;0.82;;
40533;SDS011;26233;51.894;10.192;2023-12-29T12:27:23;1.27;;;0.70;;
40533;SDS011;26233;51.894;10.192;2023-12-29T12:29:52;1.27;;;0.95;;
40533;SDS011;26233;51.894;10.192;2023-12-29T12:32:25;0.73;;;0.70;;
40533;SDS011;26233;51.894;10.192;2023-12-29T12:34:54;1.17;;;0.90;;
40533;SDS011;26233;51.894;10.192;2023-12-29T12:37:22;0.75;;;0.70;;
40533;SDS011;26233;51.894;10.192;2023-12-29T12:39:50;0.80;;;0.80;;
40533;SDS011;26233;51.894;10.192;2023-12-29T12:42:18;1.10;;;1.00;;
40533;SDS011;26233;51.894;10.192;2023-12-29T12:44:47;0.90;;;0.90;;
40533;SDS011;26233;51.894;10.192;2023-12-29T12:47:23;1.50;;;1.30;;
40533;SDS011;26233;51.894;10.192;2023-12-29T12:49:59;1.02;;;0.93;;
40533;SDS011;26233;51.894;10.192;2023-12-29T12:52:30;0.75;;;0.75;;
40533;SDS011;26233;51.894;10.192;2023-12-29T12:54:58;0.80;;;0.70;;
40533;SDS011;26233;51.894;10.192;2023-12-29T12:57:25;0.80;;;0.70;;
40533;SDS011;26233;51.894;10.192;2023-12-29T12:59:53;1.00;;;0.90;;
40533;SDS011;26233;51.894;10.192;2023-12-29T13:02:20;0.68;;;0.60;;
40533;SDS011;26233;51.894;10.192;2023-12-29T13:04:50;1.20;;;0.70;;
40533;SDS011;26233;51.894;10.192;2023-12-29T13:07:18;1.35;;;1.10;;
40533;SDS011;26233;51.894;10.192;2023-12-29T13:09:47;1.35;;;0.70;;
40533;SDS011;26233;51.894;10.192;2023-12-29T13:12:15;0.70;;;0.70;;
40533;SDS011;26233;51.894;10.192;2023-12-29T13:14:43;1.05;;;0.70;;
40533;SDS011;26233;51.894;10.192;2023-12-29T13:17:11;0.80;;;0.70;;
40533;SDS011;26233;51.894;10.192;2023-12-29T13:19:40;0.73;;;0.73;;
40533;SDS011;26233;51.894;10.192;2023-12-29T13:22:10;0.70;;;0.70;;
40533;SDS011;26233;51.894;10.192;2023-12-29T13:24:42;0.73;;;0.70;;
40533;SDS011;26233;51.894;10.192;2023-12-29T13:27:10;0.50;;;0.50;;
40533;SDS011;26233;51.894;10.192;2023-12-29T13:29:39;0.70;;;0.70;;
40533;SDS011;26233;51.894;10.192;2023-12-29T13:32:09;0.55;;;0.55;;
40533;SDS011;26233;51.894;10.192;2023-12-29T13:34:44;0.60;;;0.60;;
40533;SDS011;26233;51.894;10.192;2023-12-29T13:37:23;0.50;;;0.50;;
40533;SDS011;26233;51.894;10.192;2023-12-29T13:39:58;0.65;;;0.60;;
40533;SDS011;26233;51.894;10.192;2023-12-29T13:42:36;0.55;;;0.50;;
40533;SDS011;26233;51.894;10.192;2023-12-29T13:45:06;0.80;;;0.60;;
40533;SDS011;26233;51.894;10.192;2023-12-29T13:47:35;0.80;;;0.70;;
40533;SDS011;26233;51.894;10.192;2023-12-29T13:50:04;0.60;;;0.60;;
40533;SDS011;26233;51.894;10.192;2023-12-29T13:52:36;0.60;;;0.60;;
40533;SDS011;26233;51.894;10.192;2023-12-29T13:55:04;0.80;;;0.80;;
40533;SDS011;26233;51.894;10.192;2023-12-29T13:57:32;0.85;;;0.80;;
40533;SDS011;26233;51.894;10.192;2023-12-29T14:00:13;1.00;;;0.90;;
40533;SDS011;26233;51.894;10.192;2023-12-29T14:02:43;0.75;;;0.75;;
40533;SDS011;26233;51.894;10.192;2023-12-29T14:05:14;1.05;;;0.80;;
40533;SDS011;26233;51.894;10.192;2023-12-29T14:07:47;1.25;;;0.80;;
40533;SDS011;26233;51.894;10.192;2023-12-29T14:10:21;0.95;;;0.80;;
40533;SDS011;26233;51.894;10.192;2023-12-29T14:12:48;0.60;;;0.60;;
40533;SDS011;26233;51.894;10.192;2023-12-29T14:15:15;0.88;;;0.80;;
40533;SDS011;26233;51.894;10.192;2023-12-29T14:17:42;1.05;;;0.80;;
40533;SDS011;26233;51.894;10.192;2023-12-29T14:20:09;0.80;;;0.80;;
40533;SDS011;26233;51.894;10.192;2023-12-29T14:22:36;0.70;;;0.70;;
40533;SDS011;26233;51.894;10.192;2023-12-29T14:25:05;0.70;;;0.70;;
40533;SDS011;26233;51.894;10.192;2023-12-29T14:27:34;1.42;;;0.80;;
40533;SDS011;26233;51.894;10.192;2023-12-29T14:30:04;1.23;;;0.63;;
40533;SDS011;26233;51.894;10.192;2023-12-29T14:32:44;0.80;;;0.80;;
40533;SDS011;26233;51.894;10.192;2023-12-29T14:35:12;0.90;;;0.80;;
40533;SDS011;26233;51.894;10.192;2023-12-29T14:37:40;1.27;;;0.90;;
40533;SDS011;26233;51.894;10.192;2023-12-29T14:40:11;0.80;;;0.80;;
40533;SDS011;26233;51.894;10.192;2023-12-29T14:42:38;0.98;;;0.85;;
40533;SDS011;26233;51.894;10.192;2023-12-29T14:45:06;0.70;;;0.70;;
40533;SDS011;26233;51.894;10.192;2023-12-29T14:47:34;1.08;;;0.95;;
40533;SDS011;26233;51.894;10.192;2023-12-29T14:50:01;1.05;;;0.80;;
40533;SDS011;26233;51.894;10.192;2023-12-29T14:52:29;0.70;;;0.70;;